createdAt,value
2023-03-26T00:00:12.736Z,16.10
2023-03-26T00:02:43.940Z,15.50
2023-03-26T00:05:14.744Z,19.75
2023-03-26T00:07:44.406Z,19.75
2023-03-26T00:10:16.962Z,20.80
2023-03-26T00:12:46.534Z,25.05
2023-03-26T00:15:15.831Z,23.38
2023-03-26T00:17:47.918Z,29.05
2023-03-26T00:20:17.955Z,18.67
2023-03-26T00:22:47.940Z,20.92
2023-03-26T00:25:17.198Z,12.70
2023-03-26T00:27:46.742Z,31.48
2023-03-26T00:30:16.775Z,25.58
2023-03-26T00:32:53.821Z,18.00
2023-03-26T00:35:24.896Z,18.35
2023-03-26T00:37:54.706Z,18.80
2023-03-26T00:40:25.025Z,24.40
2023-03-26T00:42:54.707Z,23.05
2023-03-26T00:45:24.345Z,18.83
2023-03-26T00:47:54.983Z,21.25
2023-03-26T00:50:26.645Z,20.20
2023-03-26T00:52:56.528Z,20.98
2023-03-26T00:55:26.201Z,28.90
2023-03-26T00:57:55.666Z,23.58
2023-03-26T01:00:31.994Z,23.25
2023-03-26T01:03:04.521Z,20.08
2023-03-26T01:05:54.003Z,24.20
2023-03-26T01:08:30.860Z,45.00
2023-03-26T01:11:06.995Z,24.05
2023-03-26T01:13:40.097Z,26.65
2023-03-26T01:16:20.536Z,28.25
2023-03-26T01:18:53.032Z,34.83
2023-03-26T01:21:28.989Z,25.23
2023-03-26T01:24:02.160Z,24.17
2023-03-26T01:26:49.189Z,21.35
2023-03-26T01:29:24.333Z,15.35
2023-03-26T01:32:04.156Z,20.75
2023-03-26T01:34:47.189Z,23.00
2023-03-26T01:37:22.456Z,28.75
2023-03-26T01:39:58.392Z,19.83
2023-03-26T01:42:36.122Z,27.80
2023-03-26T01:45:12.383Z,19.10
2023-03-26T01:47:43.883Z,18.27
2023-03-26T01:50:14.162Z,20.27
2023-03-26T01:52:44.604Z,27.00
2023-03-26T01:55:15.761Z,25.63
2023-03-26T01:57:57.395Z,29.38
2023-03-26T02:00:31.635Z,32.92
2023-03-26T02:03:18.283Z,30.98
2023-03-26T02:05:53.978Z,37.88
2023-03-26T02:08:35.674Z,39.42
2023-03-26T02:11:11.421Z,34.80
2023-03-26T02:13:46.463Z,29.95
2023-03-26T02:16:17.749Z,22.23
2023-03-26T02:18:51.594Z,31.00
2023-03-26T02:21:23.083Z,30.15
2023-03-26T02:23:58.207Z,31.15
2023-03-26T02:26:28.710Z,43.75
2023-03-26T02:29:08.091Z,47.20
2023-03-26T02:31:38.847Z,42.17
2023-03-26T02:34:10.637Z,42.30
2023-03-26T02:36:48.735Z,43.08
2023-03-26T02:39:18.378Z,39.28
2023-03-26T02:41:58.140Z,52.92
2023-03-26T02:44:28.707Z,64.45
2023-03-26T02:47:18.515Z,49.92
2023-03-26T02:49:57.191Z,51.58
2023-03-26T02:52:34.778Z,53.28
2023-03-26T02:55:04.435Z,73.15
2023-03-26T02:57:36.655Z,44.22
2023-03-26T03:00:22.970Z,61.75
2023-03-26T03:03:24.985Z,69.03
2023-03-26T03:06:06.814Z,66.90
2023-03-26T03:08:41.871Z,60.75
2023-03-26T03:11:31.823Z,77.78
2023-03-26T03:14:03.710Z,65.35
2023-03-26T03:16:37.798Z,69.93
2023-03-26T03:21:41.168Z,54.03
2023-03-26T03:24:14.126Z,74.38
2023-03-26T03:26:47.877Z,67.13
2023-03-26T03:29:39.172Z,70.53
2023-03-26T03:32:29.551Z,61.20
2023-03-26T03:35:03.390Z,67.38
2023-03-26T03:37:32.990Z,62.20
2023-03-26T03:40:02.756Z,54.92
2023-03-26T03:42:34.951Z,67.30
2023-03-26T03:45:07.815Z,55.83
2023-03-26T03:48:15.714Z,54.75
2023-03-26T03:50:48.927Z,63.72
2023-03-26T03:53:27.568Z,50.58
2023-03-26T03:58:47.672Z,67.63
2023-03-26T04:01:24.616Z,98.03
2023-03-26T04:04:27.333Z,57.08
2023-03-26T04:07:07.997Z,56.90
2023-03-26T04:09:57.393Z,72.82
2023-03-26T04:12:33.167Z,62.08
2023-03-26T04:15:05.619Z,59.08
2023-03-26T04:17:43.060Z,64.05
2023-03-26T04:20:16.173Z,47.60
2023-03-26T04:22:50.173Z,59.63
2023-03-26T04:25:22.312Z,56.33
2023-03-26T04:28:06.853Z,53.38
2023-03-26T04:30:57.377Z,48.28
2023-03-26T04:33:39.371Z,47.58
2023-03-26T04:36:11.895Z,62.70
2023-03-26T04:38:43.801Z,63.55
2023-03-26T04:41:15.795Z,55.70
2023-03-26T04:43:57.620Z,55.10
2023-03-26T04:46:37.445Z,52.38
2023-03-26T04:49:17.297Z,43.55
2023-03-26T04:51:48.169Z,56.80
2023-03-26T04:54:47.588Z,60.60
2023-03-26T04:57:23.258Z,56.05
2023-03-26T05:00:03.297Z,73.18
2023-03-26T05:02:37.997Z,54.50
2023-03-26T05:05:10.954Z,44.60
2023-03-26T05:07:42.267Z,56.97
2023-03-26T05:10:15.035Z,72.07
2023-03-26T05:12:51.434Z,41.50
2023-03-26T05:15:25.544Z,57.75
2023-03-26T05:17:57.166Z,48.40
2023-03-26T05:20:32.609Z,47.58
2023-03-26T05:23:02.202Z,45.75
2023-03-26T05:25:34.819Z,51.05
2023-03-26T05:28:05.342Z,48.53
2023-03-26T05:30:57.479Z,34.83
2023-03-26T05:33:28.980Z,53.10
2023-03-26T05:36:15.591Z,47.00
2023-03-26T05:38:50.011Z,50.63
2023-03-26T05:41:37.576Z,73.40
2023-03-26T05:44:07.208Z,48.05
2023-03-26T05:46:38.947Z,61.22
2023-03-26T05:49:08.339Z,116.65
2023-03-26T05:51:41.827Z,77.03
2023-03-26T05:54:30.960Z,68.45
2023-03-26T05:57:28.464Z,53.95
2023-03-26T06:00:26.511Z,53.25
2023-03-26T06:02:58.895Z,59.35
2023-03-26T06:05:50.484Z,38.30
2023-03-26T06:08:24.744Z,51.15
2023-03-26T06:10:59.777Z,56.80
2023-03-26T06:13:31.724Z,80.80
2023-03-26T06:16:01.165Z,37.33
2023-03-26T06:18:45.256Z,49.05
2023-03-26T06:21:14.060Z,44.63
2023-03-26T06:23:57.726Z,61.47
2023-03-26T06:26:41.573Z,51.08
2023-03-26T06:29:19.306Z,43.22
2023-03-26T06:32:19.670Z,51.75
2023-03-26T06:35:15.186Z,47.38
2023-03-26T06:37:44.086Z,44.38
2023-03-26T06:40:15.886Z,44.47
2023-03-26T06:43:10.896Z,46.05
2023-03-26T06:45:58.541Z,44.75
2023-03-26T06:48:40.380Z,64.82
2023-03-26T06:51:27.795Z,50.45
2023-03-26T06:54:16.801Z,58.83
2023-03-26T06:56:54.739Z,53.72
2023-03-26T06:59:38.792Z,50.47
2023-03-26T07:02:26.597Z,62.67
2023-03-26T07:05:14.297Z,57.15
2023-03-26T07:08:01.535Z,62.28
2023-03-26T07:10:45.511Z,46.33
2023-03-26T07:13:47.694Z,62.00
2023-03-26T07:16:35.160Z,64.15
2023-03-26T07:19:24.375Z,64.38
2023-03-26T07:21:56.901Z,58.45
2023-03-26T07:24:49.633Z,58.45
2023-03-26T07:28:01.049Z,68.65
2023-03-26T07:31:15.747Z,68.18
2023-03-26T07:34:04.115Z,69.13
2023-03-26T07:36:47.281Z,91.30
2023-03-26T07:39:45.245Z,83.18
2023-03-26T07:42:40.627Z,58.58
2023-03-26T07:45:35.393Z,57.40
2023-03-26T07:51:14.303Z,55.78
2023-03-26T07:54:07.860Z,60.28
2023-03-26T07:56:54.301Z,54.38
2023-03-26T07:59:50.978Z,80.28
2023-03-26T08:03:10.643Z,58.85
2023-03-26T08:06:09.514Z,54.65
2023-03-26T08:08:59.614Z,53.05
2023-03-26T08:11:48.662Z,64.75
2023-03-26T08:14:45.459Z,52.42
2023-03-26T08:17:17.597Z,60.58
2023-03-26T08:19:58.510Z,61.45
2023-03-26T08:22:36.755Z,60.63
2023-03-26T08:25:33.278Z,68.20
2023-03-26T08:28:17.362Z,63.90
2023-03-26T08:30:47.021Z,62.72
2023-03-26T08:33:19.114Z,52.15
2023-03-26T08:35:49.254Z,56.97
2023-03-26T08:38:22.735Z,58.40
2023-03-26T08:41:30.942Z,63.53
2023-03-26T08:44:26.260Z,73.95
2023-03-26T08:47:30.100Z,54.67
2023-03-26T08:50:21.394Z,62.83
2023-03-26T08:53:16.559Z,58.88
2023-03-26T08:55:54.739Z,57.20
2023-03-26T08:59:05.015Z,46.83
2023-03-26T09:02:10.759Z,43.45
2023-03-26T09:05:12.270Z,39.20
2023-03-26T09:08:14.718Z,39.22
2023-03-26T09:11:02.770Z,39.30
2023-03-26T09:14:01.157Z,31.50
2023-03-26T09:17:00.395Z,33.10
2023-03-26T09:20:17.182Z,29.92
2023-03-26T09:23:23.116Z,30.95
2023-03-26T09:26:24.891Z,33.35
2023-03-26T09:29:39.039Z,40.88
2023-03-26T09:32:30.052Z,34.45
2023-03-26T09:35:13.787Z,24.58
2023-03-26T09:37:58.391Z,29.63
2023-03-26T09:40:38.827Z,24.67
2023-03-26T09:43:38.542Z,31.33
2023-03-26T09:46:18.472Z,29.10
2023-03-26T09:49:03.787Z,27.00
2023-03-26T09:51:55.595Z,26.17
2023-03-26T09:54:54.480Z,22.70
2023-03-26T09:57:45.441Z,24.50
2023-03-26T10:00:29.609Z,28.75
2023-03-26T10:03:17.852Z,38.58
2023-03-26T10:05:57.539Z,17.33
2023-03-26T10:08:41.351Z,25.55
2023-03-26T10:11:18.456Z,23.95
2023-03-26T10:14:00.089Z,24.77
2023-03-26T10:16:42.886Z,18.55
2023-03-26T10:19:34.545Z,24.92
2023-03-26T10:22:15.885Z,27.13
2023-03-26T10:24:59.808Z,34.88
2023-03-26T10:27:45.267Z,25.42
2023-03-26T10:30:35.053Z,31.35
2023-03-26T10:33:14.991Z,23.42
2023-03-26T10:35:54.271Z,29.45
2023-03-26T10:38:32.430Z,24.48
2023-03-26T10:41:11.922Z,25.25
2023-03-26T10:44:08.371Z,19.48
2023-03-26T10:47:09.877Z,17.50
2023-03-26T10:50:05.113Z,27.55
2023-03-26T10:52:40.206Z,25.77
2023-03-26T10:55:17.783Z,23.20
2023-03-26T10:57:53.843Z,27.13
2023-03-26T11:00:27.255Z,39.13
2023-03-26T11:03:28.279Z,33.75
2023-03-26T11:06:11.067Z,31.30
2023-03-26T11:08:47.886Z,22.42
2023-03-26T11:11:26.756Z,16.38
2023-03-26T11:14:03.574Z,30.75
2023-03-26T11:16:47.205Z,26.73
2023-03-26T11:21:57.556Z,25.42
2023-03-26T11:25:05.734Z,20.08
2023-03-26T11:27:49.202Z,31.67
2023-03-26T11:30:29.542Z,24.02
2023-03-26T11:33:03.484Z,28.73
2023-03-26T11:35:40.578Z,23.48
2023-03-26T11:38:20.292Z,35.65
2023-03-26T11:40:51.787Z,33.53
2023-03-26T11:43:41.339Z,26.98
2023-03-26T11:46:14.120Z,31.08
2023-03-26T11:48:47.001Z,26.52
2023-03-26T11:51:24.617Z,19.77
2023-03-26T11:53:54.921Z,24.15
2023-03-26T11:56:32.793Z,27.23
2023-03-26T11:59:07.625Z,30.15
2023-03-26T12:01:50.493Z,16.20
2023-03-26T12:04:26.513Z,17.20
2023-03-26T12:06:57.786Z,22.50
2023-03-26T12:09:28.062Z,17.33
2023-03-26T12:12:02.434Z,21.08
2023-03-26T12:14:35.998Z,20.35
2023-03-26T12:17:08.346Z,21.80
2023-03-26T12:19:41.658Z,20.67
2023-03-26T12:22:29.775Z,35.13
2023-03-26T12:25:15.526Z,20.88
2023-03-26T12:27:46.158Z,27.25
2023-03-26T12:30:22.838Z,20.15
2023-03-26T12:32:53.607Z,17.40
2023-03-26T12:35:27.358Z,16.08
2023-03-26T12:38:14.407Z,17.55
2023-03-26T12:40:45.115Z,16.98
2023-03-26T12:44:56.638Z,26.92
2023-03-26T12:49:15.384Z,16.83
2023-03-26T12:51:51.880Z,11.98
2023-03-26T12:54:33.324Z,17.02
2023-03-26T12:57:24.829Z,20.80
2023-03-26T13:00:22.937Z,24.90
2023-03-26T13:05:55.730Z,13.23
2023-03-26T13:09:00.450Z,8.88
2023-03-26T13:11:39.529Z,23.77
2023-03-26T13:14:54.987Z,11.48
2023-03-26T13:17:36.170Z,20.08
2023-03-26T13:20:12.346Z,13.88
2023-03-26T13:22:51.428Z,24.15
2023-03-26T13:25:31.455Z,11.30
2023-03-26T13:28:15.509Z,13.90
2023-03-26T13:30:54.047Z,25.55
2023-03-26T13:33:55.126Z,13.38
2023-03-26T13:36:35.873Z,17.95
2023-03-26T13:39:28.989Z,15.27
2023-03-26T13:42:10.505Z,12.90
2023-03-26T13:45:05.290Z,15.18
2023-03-26T13:47:39.521Z,15.18
2023-03-26T13:50:21.482Z,10.63
2023-03-26T13:52:55.336Z,9.40
2023-03-26T13:55:29.672Z,5.97
2023-03-26T13:58:05.098Z,11.02
2023-03-26T14:00:49.011Z,16.48
2023-03-26T14:03:29.115Z,9.57
2023-03-26T14:06:01.834Z,8.88
2023-03-26T14:08:36.930Z,22.95
2023-03-26T14:11:11.101Z,8.88
2023-03-26T14:13:44.889Z,15.75
2023-03-26T14:16:20.074Z,13.88
2023-03-26T14:18:58.386Z,18.58
2023-03-26T14:21:42.505Z,8.68
2023-03-26T14:24:32.437Z,9.77
2023-03-26T14:27:13.978Z,6.82
2023-03-26T14:29:57.849Z,6.28
2023-03-26T14:32:41.907Z,11.23
2023-03-26T14:35:29.653Z,13.18
2023-03-26T14:38:20.297Z,14.68
2023-03-26T14:40:59.544Z,15.43
2023-03-26T14:44:14.824Z,11.43
2023-03-26T14:46:56.710Z,11.32
2023-03-26T14:49:53.679Z,14.88
2023-03-26T14:52:29.507Z,9.18
2023-03-26T14:55:02.684Z,9.10
2023-03-26T14:58:05.534Z,23.40
2023-03-26T15:01:16.010Z,10.80
2023-03-26T15:04:39.019Z,6.43
2023-03-26T15:07:45.941Z,8.35
2023-03-26T15:10:51.089Z,12.05
2023-03-26T15:13:51.224Z,13.63
2023-03-26T15:16:50.795Z,16.38
2023-03-26T15:19:57.113Z,11.68
2023-03-26T15:23:12.562Z,17.23
2023-03-26T15:26:29.024Z,13.60
2023-03-26T15:29:27.380Z,14.88
2023-03-26T15:32:22.365Z,11.25
2023-03-26T15:35:36.736Z,15.93
2023-03-26T15:38:43.252Z,8.30
2023-03-26T15:41:18.597Z,16.63
2023-03-26T15:44:23.955Z,13.55
2023-03-26T15:47:03.027Z,11.73
2023-03-26T15:49:41.130Z,26.27
2023-03-26T15:52:23.981Z,17.52
2023-03-26T15:55:02.374Z,13.85
2023-03-26T15:57:36.316Z,14.85
2023-03-26T16:00:23.950Z,15.63
2023-03-26T16:03:10.025Z,8.63
2023-03-26T16:05:55.734Z,14.38
2023-03-26T16:08:38.779Z,9.80
2023-03-26T16:11:12.634Z,11.73
2023-03-26T16:13:43.662Z,16.80
2023-03-26T16:16:23.666Z,10.77
2023-03-26T16:18:58.417Z,7.90
2023-03-26T16:21:40.371Z,8.35
2023-03-26T16:24:31.986Z,12.32
2023-03-26T16:27:30.980Z,10.30
2023-03-26T16:30:30.362Z,18.00
2023-03-26T16:33:12.591Z,11.70
2023-03-26T16:35:54.233Z,9.25
2023-03-26T16:38:27.467Z,7.13
2023-03-26T16:41:03.557Z,12.73
2023-03-26T16:44:06.022Z,14.88
2023-03-26T16:46:48.450Z,13.73
2023-03-26T16:49:29.000Z,13.73
2023-03-26T16:52:06.763Z,12.05
2023-03-26T16:54:48.471Z,4.32
2023-03-26T16:57:26.097Z,6.82
2023-03-26T17:00:17.544Z,9.05
2023-03-26T17:03:00.074Z,9.18
2023-03-26T17:05:38.643Z,5.28
2023-03-26T17:08:16.549Z,8.88
2023-03-26T17:10:58.040Z,8.25
2023-03-26T17:13:44.358Z,8.40
2023-03-26T17:16:21.702Z,8.00
2023-03-26T17:19:04.278Z,6.93
2023-03-26T17:21:45.819Z,10.98
2023-03-26T17:24:28.352Z,8.95
2023-03-26T17:27:34.088Z,10.68
2023-03-26T17:30:26.014Z,17.95
2023-03-26T17:32:58.960Z,12.13
2023-03-26T17:35:41.085Z,11.75
2023-03-26T17:38:45.497Z,11.27
2023-03-26T17:41:51.615Z,7.35
2023-03-26T17:44:45.646Z,7.20
2023-03-26T17:47:38.249Z,9.93
2023-03-26T17:50:15.862Z,9.47
2023-03-26T17:52:57.977Z,15.80
2023-03-26T17:55:32.296Z,8.52
2023-03-26T17:58:04.343Z,7.97
2023-03-26T18:00:36.185Z,10.77
2023-03-26T18:03:16.322Z,13.90
2023-03-26T18:05:45.219Z,10.15
2023-03-26T18:09:06.233Z,12.50
2023-03-26T18:12:01.137Z,9.70
2023-03-26T18:15:08.114Z,11.70
2023-03-26T18:17:42.608Z,14.75
2023-03-26T18:20:21.713Z,13.57
2023-03-26T18:22:51.741Z,8.65
2023-03-26T18:25:27.166Z,9.60
2023-03-26T18:27:57.866Z,17.05
2023-03-26T18:30:28.124Z,11.40
2023-03-26T18:33:02.432Z,9.52
2023-03-26T18:35:42.322Z,17.15
2023-03-26T18:38:17.009Z,8.00
2023-03-26T18:40:47.170Z,12.30
2023-03-26T18:43:32.254Z,9.77
2023-03-26T18:46:05.457Z,13.20
2023-03-26T18:48:34.431Z,12.07
2023-03-26T18:51:05.901Z,14.68
2023-03-26T18:53:40.221Z,19.48
2023-03-26T18:56:31.796Z,9.73
2023-03-26T19:01:37.598Z,9.32
2023-03-26T19:04:08.744Z,12.10
2023-03-26T19:06:43.130Z,18.02
2023-03-26T19:09:28.073Z,10.82
2023-03-26T19:12:08.045Z,18.25
2023-03-26T19:14:54.503Z,7.78
2023-03-26T19:17:31.746Z,16.08
2023-03-26T19:20:00.721Z,8.68
2023-03-26T19:22:31.472Z,13.13
2023-03-26T19:25:04.634Z,12.40
2023-03-26T19:27:33.471Z,12.90
2023-03-26T19:30:05.210Z,5.95
2023-03-26T19:32:35.494Z,11.75
2023-03-26T19:35:05.863Z,9.27
2023-03-26T19:37:34.626Z,14.00
2023-03-26T19:40:14.333Z,9.88
2023-03-26T19:42:45.102Z,8.60
2023-03-26T19:45:19.593Z,6.88
2023-03-26T19:48:00.416Z,12.43
2023-03-26T19:50:42.137Z,10.63
2023-03-26T19:53:17.883Z,13.20
2023-03-26T19:55:58.865Z,14.25
2023-03-26T19:58:29.984Z,11.55
2023-03-26T20:00:59.513Z,26.30
2023-03-26T20:03:38.151Z,19.25
2023-03-26T20:06:08.971Z,9.15
2023-03-26T20:08:40.431Z,10.43
2023-03-26T20:11:16.625Z,13.02
2023-03-26T20:13:45.475Z,9.15
2023-03-26T20:16:19.885Z,12.48
2023-03-26T20:18:51.382Z,11.27
2023-03-26T20:21:20.146Z,14.35
2023-03-26T20:23:49.505Z,9.90
2023-03-26T20:26:21.337Z,13.68
2023-03-26T20:28:53.510Z,14.93
2023-03-26T20:31:26.649Z,10.23
2023-03-26T20:33:59.469Z,10.73
2023-03-26T20:36:33.648Z,10.02
2023-03-26T20:39:06.715Z,13.27
2023-03-26T20:41:38.215Z,12.23
2023-03-26T20:44:15.194Z,7.82
2023-03-26T20:46:44.746Z,10.93
2023-03-26T20:49:18.223Z,6.35
2023-03-26T20:51:47.745Z,15.48
2023-03-26T20:54:19.363Z,9.90
2023-03-26T20:56:51.104Z,7.78
2023-03-26T20:59:26.670Z,10.32
2023-03-26T21:04:27.963Z,12.50
2023-03-26T21:07:07.213Z,13.35
2023-03-26T21:09:40.745Z,9.52
2023-03-26T21:12:22.952Z,6.75
2023-03-26T21:14:52.616Z,14.77
2023-03-26T21:17:26.448Z,9.77
2023-03-26T21:20:00.638Z,10.60
2023-03-26T21:22:37.720Z,14.82
2023-03-26T21:25:20.226Z,25.17
2023-03-26T21:28:06.160Z,8.50
2023-03-26T21:30:36.382Z,9.10
2023-03-26T21:33:06.387Z,19.77
2023-03-26T21:35:38.533Z,10.18
2023-03-26T21:38:09.563Z,8.65
2023-03-26T21:40:42.471Z,18.60
2023-03-26T21:43:28.635Z,39.90
2023-03-26T21:45:58.567Z,14.10
2023-03-26T21:48:30.209Z,13.57
2023-03-26T21:51:05.290Z,10.60
2023-03-26T21:53:37.414Z,11.50
2023-03-26T21:56:19.642Z,9.88
2023-03-26T21:59:00.601Z,7.05
2023-03-26T22:01:35.788Z,12.32
2023-03-26T22:04:11.332Z,17.95
2023-03-26T22:06:47.889Z,15.70
2023-03-26T22:09:23.422Z,15.57
2023-03-26T22:11:56.336Z,7.60
2023-03-26T22:14:26.023Z,10.65
2023-03-26T22:16:55.555Z,12.20
2023-03-26T22:19:25.724Z,17.50
2023-03-26T22:21:56.787Z,6.93
2023-03-26T22:24:26.464Z,12.65
2023-03-26T22:26:56.110Z,6.43
2023-03-26T22:29:26.014Z,10.05
2023-03-26T22:31:55.206Z,7.13
2023-03-26T22:34:25.161Z,11.68
2023-03-26T22:36:56.004Z,13.73
2023-03-26T22:39:25.490Z,13.68
2023-03-26T22:41:54.919Z,14.43
2023-03-26T22:44:25.942Z,15.55
2023-03-26T22:46:57.247Z,32.35
2023-03-26T22:49:30.443Z,12.02
2023-03-26T22:52:01.071Z,8.73
2023-03-26T22:54:31.042Z,10.00
2023-03-26T22:57:00.526Z,7.43
2023-03-26T22:59:29.922Z,10.80
2023-03-26T23:01:59.468Z,6.90
2023-03-26T23:04:32.172Z,14.95
2023-03-26T23:07:03.440Z,10.65
2023-03-26T23:09:32.997Z,5.75
2023-03-26T23:12:02.243Z,8.40
2023-03-26T23:14:32.698Z,13.23
2023-03-26T23:17:01.722Z,13.20
2023-03-26T23:19:34.104Z,14.05
2023-03-26T23:22:05.030Z,10.60
2023-03-26T23:24:34.584Z,10.75
2023-03-26T23:27:03.933Z,7.90
2023-03-26T23:29:33.746Z,6.93
2023-03-26T23:32:03.316Z,9.98
2023-03-26T23:34:52.976Z,9.73
2023-03-26T23:37:24.648Z,8.77
2023-03-26T23:39:54.203Z,9.07
2023-03-26T23:42:28.529Z,5.72
2023-03-26T23:44:59.056Z,7.65
2023-03-26T23:47:34.764Z,14.07
2023-03-26T23:50:06.429Z,6.55
2023-03-26T23:52:38.055Z,8.73
2023-03-26T23:55:08.660Z,8.77
2023-03-26T23:57:38.509Z,7.47
